createdAt,value
2022-10-05T00:02:25.381Z,1001.84
2022-10-05T00:07:25.240Z,1001.88
2022-10-05T00:12:25.075Z,1001.80
2022-10-05T00:17:25.002Z,1001.69
2022-10-05T00:22:25.819Z,1001.63
2022-10-05T00:27:24.838Z,1001.70
2022-10-05T00:32:24.813Z,1001.65
2022-10-05T00:37:24.719Z,1001.57
2022-10-05T00:42:24.653Z,1001.61
2022-10-05T00:47:24.689Z,1001.64
2022-10-05T00:52:27.619Z,1001.55
2022-10-05T00:57:24.644Z,1001.51
2022-10-05T01:02:24.433Z,1001.54
2022-10-05T01:07:24.450Z,1001.51
2022-10-05T01:12:24.439Z,1001.66
2022-10-05T01:17:24.413Z,1001.68
2022-10-05T01:22:24.229Z,1001.54
2022-10-05T01:27:24.054Z,1001.62
2022-10-05T01:32:24.161Z,1001.57
2022-10-05T01:37:23.894Z,1001.52
2022-10-05T01:42:23.914Z,1001.49
2022-10-05T01:47:23.854Z,1001.50
2022-10-05T01:52:26.870Z,1001.46
2022-10-05T01:57:23.878Z,1001.53
2022-10-05T02:02:23.785Z,1001.60
2022-10-05T02:07:23.518Z,1001.61
2022-10-05T02:12:23.558Z,1001.52
2022-10-05T02:17:31.318Z,1001.46
2022-10-05T02:23:40.587Z,1001.51
2022-10-05T02:28:40.313Z,1001.47
2022-10-05T02:33:41.326Z,1001.54
2022-10-05T02:38:40.139Z,1001.61
2022-10-05T02:43:40.503Z,1001.64
2022-10-05T02:48:40.193Z,1001.65
2022-10-05T02:53:40.070Z,1001.66
2022-10-05T02:58:40.028Z,1001.60
2022-10-05T03:03:40.038Z,1001.53
2022-10-05T03:08:39.954Z,1001.49
2022-10-05T03:13:42.813Z,1001.46
2022-10-05T03:18:39.815Z,1001.38
2022-10-05T03:23:39.688Z,1001.30
2022-10-05T03:28:39.633Z,1001.27
2022-10-05T03:33:39.478Z,1001.29
2022-10-05T03:38:39.508Z,1001.35
2022-10-05T03:43:39.749Z,1001.28
2022-10-05T03:48:39.413Z,1001.31
2022-10-05T03:53:39.448Z,1001.32
2022-10-05T03:58:39.225Z,1001.43
2022-10-05T04:03:39.063Z,1001.48
2022-10-05T04:08:39.094Z,1001.50
2022-10-05T04:13:42.068Z,1001.48
2022-10-05T04:18:38.868Z,1001.40
2022-10-05T04:23:38.918Z,1001.36
2022-10-05T04:28:38.778Z,1001.29
2022-10-05T04:33:38.705Z,1001.25
2022-10-05T04:38:39.404Z,1001.25
2022-10-05T04:43:38.609Z,1001.38
2022-10-05T04:48:38.513Z,1001.27
2022-10-05T04:53:38.400Z,1001.12
2022-10-05T04:58:42.237Z,1001.16
2022-10-05T05:03:38.284Z,1001.13
2022-10-05T05:08:38.158Z,1001.25
2022-10-05T05:13:41.208Z,1001.27
2022-10-05T05:18:45.953Z,1001.24
2022-10-05T05:23:45.514Z,1001.35
2022-10-05T05:28:38.063Z,1001.36
2022-10-05T05:33:37.981Z,1001.34
2022-10-05T05:38:37.863Z,1001.35
2022-10-05T05:43:45.849Z,1001.33
2022-10-05T05:48:45.318Z,1001.37
2022-10-05T05:55:06.151Z,1001.35
2022-10-05T06:00:06.121Z,1001.18
2022-10-05T06:05:06.026Z,1001.21
2022-10-05T06:10:05.859Z,1001.13
2022-10-05T06:15:06.148Z,1001.16
2022-10-05T06:20:05.857Z,1001.09
2022-10-05T06:25:05.721Z,1000.94
2022-10-05T06:30:05.691Z,1000.84
2022-10-05T06:35:05.661Z,1000.84
2022-10-05T06:40:05.404Z,1000.81
2022-10-05T06:45:08.402Z,1000.75
2022-10-05T06:50:05.352Z,1000.70
2022-10-05T06:55:05.262Z,1000.69
2022-10-05T07:00:14.626Z,1000.57
2022-10-05T07:05:12.065Z,1000.55
2022-10-05T07:10:05.058Z,1000.50
2022-10-05T07:15:04.964Z,1000.53
2022-10-05T07:20:05.009Z,1000.43
2022-10-05T07:25:04.861Z,1000.48
2022-10-05T07:30:04.805Z,1000.55
2022-10-05T07:35:04.742Z,1000.60
2022-10-05T07:40:04.690Z,1000.54
2022-10-05T07:45:07.789Z,1000.51
2022-10-05T07:50:04.627Z,1000.60
2022-10-05T07:55:04.509Z,1000.62
2022-10-05T08:00:04.380Z,1000.57
2022-10-05T08:05:04.696Z,1000.55
2022-10-05T08:10:04.229Z,1000.44
2022-10-05T08:15:04.288Z,1000.33
2022-10-05T08:20:04.076Z,1000.29
2022-10-05T08:25:04.067Z,1000.29
2022-10-05T08:30:03.975Z,1000.27
2022-10-05T08:35:03.984Z,1000.26
2022-10-05T08:40:04.107Z,1000.14
2022-10-05T08:45:06.813Z,1000.15
2022-10-05T08:50:03.699Z,1000.16
2022-10-05T08:55:03.929Z,1000.13
2022-10-05T09:00:03.572Z,1000.15
2022-10-05T09:05:03.650Z,1000.20
2022-10-05T09:10:03.474Z,1000.22
2022-10-05T09:15:26.271Z,1000.14
2022-10-05T09:20:04.330Z,1000.08
2022-10-05T09:25:03.540Z,1000.12
2022-10-05T09:30:03.220Z,1000.12
2022-10-05T09:35:03.208Z,1000.05
2022-10-05T09:40:03.121Z,999.99
2022-10-05T09:45:06.001Z,999.89
2022-10-05T09:50:02.892Z,999.81
2022-10-05T09:55:03.055Z,999.74
2022-10-05T10:00:02.867Z,999.72
2022-10-05T10:05:02.791Z,999.67
2022-10-05T10:10:02.638Z,999.60
2022-10-05T10:15:03.218Z,999.48
2022-10-05T10:20:02.581Z,999.48
2022-10-05T10:25:02.474Z,999.47
2022-10-05T10:30:02.546Z,999.45
2022-10-05T10:35:02.321Z,999.47
2022-10-05T10:40:02.371Z,999.47
2022-10-05T10:45:05.421Z,999.40
2022-10-05T10:50:02.115Z,999.44
2022-10-05T10:55:02.054Z,999.47
2022-10-05T11:00:01.940Z,999.47
2022-10-05T11:05:01.975Z,999.48
2022-10-05T11:10:01.814Z,999.58
2022-10-05T11:15:01.959Z,999.52
2022-10-05T11:20:04.389Z,999.59
2022-10-05T11:25:02.419Z,999.61
2022-10-05T11:30:01.541Z,999.58
2022-10-05T11:35:09.360Z,999.53
2022-10-05T11:40:01.425Z,999.54
2022-10-05T11:45:04.502Z,999.53
2022-10-05T11:50:01.313Z,999.44
2022-10-05T11:55:16.651Z,999.34
2022-10-05T12:00:02.488Z,999.28
2022-10-05T12:05:01.083Z,999.22
2022-10-05T12:10:01.175Z,999.19
2022-10-05T12:15:00.934Z,999.19
2022-10-05T12:20:01.063Z,999.20
2022-10-05T12:25:00.802Z,999.08
2022-10-05T12:30:00.896Z,998.98
2022-10-05T12:35:02.208Z,998.94
2022-10-05T12:40:00.641Z,999.04
2022-10-05T12:45:03.645Z,998.99
2022-10-05T12:50:00.710Z,998.98
2022-10-05T12:55:00.586Z,998.90
2022-10-05T13:00:00.393Z,998.90
2022-10-05T13:05:00.367Z,998.92
2022-10-05T13:10:00.293Z,998.80
2022-10-05T13:15:00.222Z,998.80
2022-10-05T13:20:00.431Z,998.80
2022-10-05T13:25:00.220Z,998.81
2022-10-05T13:30:00.019Z,998.80
2022-10-05T13:35:00.053Z,998.86
2022-10-05T13:39:59.870Z,998.85
2022-10-05T13:45:02.793Z,998.78
2022-10-05T13:49:59.714Z,998.78
2022-10-05T13:54:59.782Z,998.86
2022-10-05T13:59:59.609Z,998.83
2022-10-05T14:04:59.549Z,998.84
2022-10-05T14:09:59.655Z,998.82
2022-10-05T14:14:59.399Z,998.76
2022-10-05T14:19:59.318Z,998.79
2022-10-05T14:24:59.367Z,998.79
2022-10-05T14:29:59.249Z,998.77
2022-10-05T14:35:11.792Z,998.81
2022-10-05T14:39:59.009Z,998.77
2022-10-05T14:45:02.018Z,998.78
2022-10-05T14:50:06.812Z,998.71
2022-10-05T14:54:58.910Z,998.64
2022-10-05T14:59:58.810Z,998.57
2022-10-05T15:04:58.779Z,998.60
2022-10-05T15:09:58.708Z,998.61
2022-10-05T15:14:58.579Z,998.60
2022-10-05T15:19:58.519Z,998.55
2022-10-05T15:24:58.603Z,998.47
2022-10-05T15:29:58.551Z,998.47
2022-10-05T15:35:06.273Z,998.41
2022-10-05T15:39:58.205Z,998.39
2022-10-05T15:45:01.182Z,998.33
2022-10-05T15:49:58.255Z,998.30
2022-10-05T15:54:58.574Z,998.25
2022-10-05T15:59:57.978Z,998.28
2022-10-05T16:05:01.152Z,998.28
2022-10-05T16:09:58.980Z,998.30
2022-10-05T16:14:57.758Z,998.32
2022-10-05T16:19:57.740Z,998.32
2022-10-05T16:24:57.654Z,998.27
2022-10-05T16:29:57.645Z,998.30
2022-10-05T16:34:57.523Z,998.30
2022-10-05T16:39:57.505Z,998.35
2022-10-05T16:45:00.445Z,998.40
2022-10-05T16:49:57.433Z,998.49
2022-10-05T16:54:57.273Z,998.54
2022-10-05T16:59:57.215Z,998.61
2022-10-05T17:04:57.213Z,998.67
2022-10-05T17:11:17.161Z,998.70
2022-10-05T17:16:14.530Z,998.70
2022-10-05T17:21:14.644Z,998.75
2022-10-05T17:26:21.911Z,998.71
2022-10-05T17:31:14.543Z,998.73
2022-10-05T17:36:14.503Z,998.74
2022-10-05T17:41:14.307Z,998.75
2022-10-05T17:46:14.181Z,998.73
2022-10-05T17:51:14.043Z,998.74
2022-10-05T17:56:14.168Z,998.73
2022-10-05T18:01:17.179Z,998.71
2022-10-05T18:06:13.913Z,998.76
2022-10-05T18:11:13.945Z,998.70
2022-10-05T18:16:13.973Z,998.74
2022-10-05T18:21:13.706Z,998.85
2022-10-05T18:26:13.561Z,998.84
2022-10-05T18:31:13.555Z,998.95
2022-10-05T18:36:13.504Z,998.87
2022-10-05T18:41:13.552Z,999.01
2022-10-05T18:46:13.370Z,999.05
2022-10-05T18:51:13.286Z,999.17
2022-10-05T18:56:13.178Z,999.21
2022-10-05T19:01:16.256Z,999.24
2022-10-05T19:06:13.382Z,999.25
2022-10-05T19:11:13.011Z,999.35
2022-10-05T19:16:12.953Z,999.44
2022-10-05T19:21:12.978Z,999.51
2022-10-05T19:26:12.807Z,999.61
2022-10-05T19:31:12.825Z,999.63
2022-10-05T19:36:12.626Z,999.67
2022-10-05T19:41:12.672Z,999.79
2022-10-05T19:46:16.284Z,999.78
2022-10-05T19:51:13.583Z,999.81
2022-10-05T19:56:12.376Z,999.82
2022-10-05T20:01:23.175Z,999.88
2022-10-05T20:06:19.756Z,999.89
2022-10-05T20:11:12.206Z,999.90
2022-10-05T20:16:12.179Z,999.97
2022-10-05T20:21:12.114Z,1000.02
2022-10-05T20:26:11.985Z,1000.02
2022-10-05T20:31:12.548Z,1000.03
2022-10-05T20:36:11.852Z,1000.08
2022-10-05T20:41:11.811Z,1000.18
2022-10-05T20:46:11.698Z,1000.29
2022-10-05T20:51:11.676Z,1000.32
2022-10-05T20:56:11.578Z,1000.32
2022-10-05T21:01:15.177Z,1000.41
2022-10-05T21:06:11.466Z,1000.43
2022-10-05T21:11:11.416Z,1000.45
2022-10-05T21:16:11.361Z,1000.52
2022-10-05T21:21:11.286Z,1000.50
2022-10-05T21:26:11.257Z,1000.58
2022-10-05T21:31:11.437Z,1000.64
2022-10-05T21:36:11.068Z,1000.65
2022-10-05T21:41:11.064Z,1000.73
2022-10-05T21:46:10.947Z,1000.79
2022-10-05T21:51:10.914Z,1000.87
2022-10-05T21:56:10.884Z,1000.87
2022-10-05T22:01:13.820Z,1000.99
2022-10-05T22:06:10.651Z,1001.01
2022-10-05T22:11:11.238Z,1001.11
2022-10-05T22:16:10.609Z,1001.10
2022-10-05T22:21:10.486Z,1001.11
2022-10-05T22:26:10.376Z,1001.21
2022-10-05T22:31:10.339Z,1001.29
2022-10-05T22:36:10.284Z,1001.32
2022-10-05T22:41:10.224Z,1001.38
2022-10-05T22:46:10.304Z,1001.45
2022-10-05T22:51:10.127Z,1001.49
2022-10-05T22:56:09.992Z,1001.48
2022-10-05T23:01:12.987Z,1001.55
2022-10-05T23:06:09.902Z,1001.53
2022-10-05T23:11:09.853Z,1001.56
2022-10-05T23:16:09.812Z,1001.58
2022-10-05T23:21:10.246Z,1001.52
2022-10-05T23:26:09.583Z,1001.58
2022-10-05T23:31:09.622Z,1001.63
2022-10-05T23:36:09.478Z,1001.76
2022-10-05T23:41:09.455Z,1001.76
2022-10-05T23:46:09.390Z,1001.81
2022-10-05T23:51:09.529Z,1001.76
2022-10-05T23:56:09.453Z,1001.83
